John C. Munro Hamilton International Airport
CYHM : now visible

Airfield :











YOU CAN JOIN US ON...

 
LOGIN :

Register | Disclaimer

   EN    FR    IT 

 









Legend :    VFR   Marginal VFR   IFR   Intensive IFR   Very Intensive IFR
Visi :
Ceiling :
>= 8 km
>= 3000ft
5 to 8 km
1000 to 3000 ft
1500m to 5 km
500 to 1000 ft
800 to 1500m
200 to 500 ft
< 800m
< 200 ft
Symbols :   Thunderstorms  Fog  Heavy snow  Heavy precipitations  Wind > 20 kt






- Airport Elevation : 780 ft
- IATA code : YHM


CYHM - John C. Munro Hamilton International

CURRENT METAR :
  • 131500Z 11004KT 15SM FEW025 FEW040 SCT090 BKN240 M08/M10 A3034 RMK CU1SC1AC1CI3 SLP294

EXPIRED METARs :
  • 131400Z 00000KT 15SM FEW025 SCT035 SCT120 BKN240 M10/M11 A3035 RMK CU1SC2AC1CI3 SLP296
  • 131300Z 20002KT 15SM FEW025 SCT035 BKN240 M12/M14 A3032 RMK CU1SC3CI2 SLP288

TAF TAF CYHM
Valid from the 13 at 12:00 until the 14 at 12:00 UTC


131138Z 1312/1412 VRB03KT P6SM BKN030
TEMPO 1312/1316 BKN020
FM131600 VRB03KT P6SM FEW030 BKN160
FM132200 VRB03KT 4SM -SN BKN020 OVC090
FM140700 20007KT 2SM -SN BKN020 OVC060
PROB30 1407/1412 11/2SM -SN OVC015 RMK NXT FCST BY 131800Z



MET'MAP, your aeronautical weather chart ! - Copyright ORBIFLY December 2007 - Disclaimer

ORBIFLY MET'MAP TEAM :

Programming & Development : Alexandra Zaïnal
Concept & Development : Baudouin d'Aumeries
Co-Development & Prog : Marc-Olivier Méhu
Technical & hardware support : Manuel Goepfert

Contact : metmap@orbifly.com




SOURCES & CREDITS :

   NOAA       Earth
Advisory